createdAt,value
2022-10-16T00:01:31.607Z,14.23
2022-10-16T00:06:35.918Z,12.94
2022-10-16T00:11:41.473Z,12.28
2022-10-16T00:16:46.731Z,12.86
2022-10-16T00:21:50.507Z,12.68
2022-10-16T00:27:13.187Z,14.23
2022-10-16T00:32:18.683Z,12.51
2022-10-16T00:37:22.849Z,13.57
2022-10-16T00:42:27.860Z,12.33
2022-10-16T00:47:52.471Z,14.22
2022-10-16T00:52:58.078Z,14.07
2022-10-16T00:58:02.214Z,14.17
2022-10-16T01:03:25.672Z,14.11
2022-10-16T01:08:36.629Z,13.62
2022-10-16T01:13:43.768Z,13.75
2022-10-16T01:18:49.306Z,13.79
2022-10-16T01:24:00.015Z,13.76
2022-10-16T01:29:09.319Z,13.80
2022-10-16T01:34:18.198Z,13.71
2022-10-16T01:39:24.318Z,13.83
2022-10-16T01:44:32.587Z,13.82
2022-10-16T01:49:38.850Z,13.79
2022-10-16T02:00:42.155Z,13.75
2022-10-16T02:05:48.861Z,13.78
2022-10-16T02:10:52.774Z,13.82
2022-10-16T02:15:57.742Z,13.33
2022-10-16T02:21:05.353Z,12.09
2022-10-16T02:26:11.685Z,13.66
2022-10-16T02:31:20.794Z,13.48
2022-10-16T02:36:24.395Z,13.63
2022-10-16T02:41:27.994Z,13.68
2022-10-16T03:21:16.080Z,12.96
2022-10-16T03:26:19.893Z,13.02
2022-10-16T03:31:23.657Z,13.18
2022-10-16T03:36:28.572Z,13.05
2022-10-16T03:41:32.069Z,12.84
2022-10-16T03:46:35.559Z,13.11
2022-10-16T03:51:40.448Z,12.93
2022-10-16T03:56:44.057Z,13.30
2022-10-16T04:01:49.520Z,12.84
2022-10-16T04:06:56.127Z,13.38
2022-10-16T04:11:59.683Z,13.11
2022-10-16T04:17:03.273Z,13.27
2022-10-16T04:22:08.416Z,13.40
2022-10-16T04:27:12.098Z,12.95
2022-10-16T04:32:15.627Z,13.14
2022-10-16T04:37:26.615Z,12.50
2022-10-16T04:42:30.411Z,13.37
2022-10-16T04:47:34.059Z,13.22
2022-10-16T04:52:43.259Z,13.08
2022-10-16T04:57:46.770Z,13.22
2022-10-16T05:02:52.001Z,13.48
2022-10-16T05:07:57.142Z,13.44
2022-10-16T05:13:00.658Z,13.05
2022-10-16T05:18:04.431Z,13.41
2022-10-16T05:23:11.298Z,12.88
2022-10-16T05:28:14.858Z,13.00
2022-10-16T05:33:18.595Z,13.50
2022-10-16T05:38:23.538Z,13.54
2022-10-16T05:43:26.950Z,13.47
2022-10-16T05:48:32.069Z,13.72
2022-10-16T05:53:38.087Z,13.85
2022-10-16T05:58:42.628Z,13.98
2022-10-16T06:03:46.480Z,13.99
2022-10-16T06:08:52.474Z,14.27
2022-10-16T06:13:57.645Z,14.43
2022-10-16T06:19:01.453Z,14.38
2022-10-16T06:24:06.566Z,13.78
2022-10-16T06:35:27.213Z,14.73
2022-10-16T06:40:32.106Z,14.28
2022-10-16T06:45:35.637Z,14.51
2022-10-16T06:50:39.337Z,14.11
2022-10-16T06:55:47.679Z,13.16
2022-10-16T07:00:51.942Z,14.98
2022-10-16T07:05:55.475Z,14.84
2022-10-16T07:11:04.891Z,15.37
2022-10-16T07:16:09.150Z,15.38
2022-10-16T07:21:14.738Z,15.81
2022-10-16T07:26:20.457Z,14.11
2022-10-16T07:31:24.359Z,16.10
2022-10-16T07:36:29.482Z,15.97
2022-10-16T07:46:47.105Z,15.39
2022-10-16T07:51:50.581Z,16.40
2022-10-16T07:56:55.433Z,16.31
2022-10-16T08:01:58.816Z,16.30
2022-10-16T08:07:02.244Z,16.41
2022-10-16T08:12:07.147Z,16.61
2022-10-16T08:17:10.571Z,16.30
2022-10-16T08:27:24.230Z,16.80
2022-10-16T08:32:27.903Z,16.98
2022-10-16T08:37:32.323Z,17.22
2022-10-16T08:42:47.724Z,18.00
2022-10-16T08:47:52.559Z,18.01
2022-10-16T08:52:56.352Z,18.17
2022-10-16T08:58:02.506Z,18.32
2022-10-16T09:03:12.229Z,18.24
2022-10-16T09:08:21.190Z,16.82
2022-10-16T09:13:31.835Z,18.21
2022-10-16T09:18:38.494Z,18.21
2022-10-16T09:23:42.016Z,18.29
2022-10-16T09:28:47.063Z,18.24
2022-10-16T09:41:41.390Z,18.58
2022-10-16T09:46:48.238Z,18.70
2022-10-16T09:51:52.082Z,18.73
2022-10-16T09:57:06.787Z,18.73
2022-10-16T10:02:16.661Z,18.81
2022-10-16T10:07:23.968Z,18.94
2022-10-16T10:12:28.904Z,18.73
2022-10-16T10:17:33.837Z,18.84
2022-10-16T10:22:45.259Z,18.92
2022-10-16T10:28:13.268Z,18.78
2022-10-16T10:33:25.617Z,18.82
2022-10-16T10:38:35.244Z,18.81
2022-10-16T10:43:52.986Z,18.36
2022-10-16T10:49:11.593Z,18.95
2022-10-16T10:54:20.871Z,18.73
2022-10-16T10:59:42.819Z,19.17
2022-10-16T11:05:14.506Z,19.39
2022-10-16T11:10:21.426Z,18.90
2022-10-16T11:15:28.715Z,19.52
2022-10-16T11:20:37.523Z,19.33
2022-10-16T11:25:41.797Z,19.74
2022-10-16T11:30:47.318Z,19.35
2022-10-16T11:35:55.879Z,19.04
2022-10-16T11:41:02.728Z,19.85
2022-10-16T11:46:11.454Z,20.02
2022-10-16T11:51:22.203Z,19.94
2022-10-16T11:56:26.908Z,19.97
2022-10-16T12:01:33.819Z,19.84
2022-10-16T12:06:42.189Z,19.53
2022-10-16T12:11:45.594Z,19.78
2022-10-16T12:16:58.022Z,20.00
2022-10-16T12:22:04.610Z,20.07
2022-10-16T12:27:09.486Z,19.94
2022-10-16T12:37:51.022Z,19.14
2022-10-16T12:42:55.874Z,20.28
2022-10-16T12:48:00.118Z,19.50
2022-10-16T12:53:06.558Z,20.19
2022-10-16T12:58:20.326Z,20.17
2022-10-16T13:03:52.199Z,20.34
2022-10-16T13:09:07.462Z,19.99
2022-10-16T13:14:25.049Z,20.20
2022-10-16T13:19:33.058Z,19.91
2022-10-16T13:25:29.349Z,19.94
2022-10-16T13:30:44.556Z,19.99
2022-10-16T13:35:51.656Z,20.14
2022-10-16T13:41:02.525Z,20.27
2022-10-16T13:46:09.845Z,19.86
2022-10-16T13:51:17.165Z,19.99
2022-10-16T13:56:22.464Z,20.09
2022-10-16T14:01:32.505Z,19.61
2022-10-16T14:06:37.788Z,19.96
2022-10-16T14:11:52.490Z,19.38
2022-10-16T14:16:57.292Z,19.72
2022-10-16T14:22:01.384Z,19.52
2022-10-16T14:27:25.047Z,19.31
2022-10-16T14:32:30.400Z,19.48
2022-10-16T14:37:34.257Z,19.53
2022-10-16T14:42:37.981Z,19.22
2022-10-16T14:47:51.209Z,19.41
2022-10-16T14:52:54.647Z,19.29
2022-10-16T14:58:00.581Z,18.94
2022-10-16T15:03:05.899Z,18.39
2022-10-16T15:08:09.348Z,18.42
2022-10-16T15:13:14.942Z,18.67
2022-10-16T15:18:21.462Z,18.42
2022-10-16T15:28:28.848Z,18.21
2022-10-16T15:33:37.099Z,18.18
2022-10-16T15:38:43.223Z,18.24
2022-10-16T15:43:46.818Z,18.12
2022-10-16T15:48:52.843Z,17.97
2022-10-16T15:53:56.259Z,17.32
2022-10-16T15:59:25.044Z,17.80
2022-10-16T16:41:46.616Z,17.12
2022-10-16T16:55:14.946Z,17.12
2022-10-16T17:00:21.625Z,16.82
2022-10-16T17:05:25.461Z,16.82
2022-10-16T17:10:28.958Z,16.97
2022-10-16T17:15:34.642Z,16.58
2022-10-16T17:20:38.742Z,17.10
2022-10-16T17:25:43.445Z,17.04
2022-10-16T17:30:48.853Z,16.27
2022-10-16T17:35:57.944Z,16.00
2022-10-16T17:41:06.712Z,16.99
2022-10-16T17:46:12.325Z,16.98
2022-10-16T17:51:17.734Z,16.91
2022-10-16T17:56:21.420Z,16.84
2022-10-16T18:01:27.788Z,16.77
2022-10-16T18:06:32.654Z,16.62
2022-10-16T18:11:37.143Z,16.16
2022-10-16T18:16:41.998Z,16.22
2022-10-16T18:21:45.532Z,16.59
2022-10-16T18:26:56.695Z,16.34
2022-10-16T18:32:01.587Z,16.61
2022-10-16T18:37:54.647Z,16.61
2022-10-16T18:42:58.098Z,16.50
2022-10-16T18:48:03.017Z,16.64
2022-10-16T18:53:06.419Z,16.52
2022-10-16T18:58:10.203Z,16.53
2022-10-16T19:03:15.572Z,15.59
2022-10-16T19:14:03.561Z,15.56
2022-10-16T19:19:10.197Z,16.57
2022-10-16T19:24:28.297Z,16.57
2022-10-16T19:29:31.977Z,16.60
2022-10-16T19:34:36.877Z,16.24
2022-10-16T19:39:40.357Z,16.37
2022-10-16T19:44:43.821Z,16.43
2022-10-16T19:49:49.846Z,16.56
2022-10-16T19:54:57.374Z,15.77
2022-10-16T20:00:00.929Z,16.50
2022-10-16T20:05:06.465Z,15.92
2022-10-16T20:10:10.613Z,16.46
2022-10-16T20:15:14.060Z,16.43
2022-10-16T20:20:18.873Z,16.22
2022-10-16T20:25:22.333Z,16.48
2022-10-16T20:30:25.804Z,16.49
2022-10-16T20:35:30.929Z,16.23
2022-10-16T20:40:36.117Z,16.43
2022-10-16T20:45:39.524Z,16.30
2022-10-16T20:50:44.929Z,16.14
2022-10-16T21:01:20.785Z,16.35
2022-10-16T21:12:17.899Z,15.93
2022-10-16T21:17:21.517Z,16.45
2022-10-16T21:22:25.180Z,15.83
2022-10-16T21:27:30.343Z,16.41
2022-10-16T21:32:33.892Z,16.41
2022-10-16T21:37:37.403Z,16.05
2022-10-16T21:42:42.296Z,16.39
2022-10-16T21:47:45.659Z,16.33
2022-10-16T21:52:49.148Z,16.14
2022-10-16T21:57:54.007Z,16.03
2022-10-16T22:02:58.694Z,16.21
2022-10-16T22:08:02.329Z,15.94
2022-10-16T22:13:07.236Z,15.80
2022-10-16T22:18:10.628Z,16.17
2022-10-16T22:23:14.202Z,16.00
2022-10-16T22:28:19.263Z,16.06
2022-10-16T22:33:22.751Z,15.66
2022-10-16T22:38:26.230Z,15.71
2022-10-16T22:43:31.254Z,15.07
2022-10-16T22:48:35.170Z,15.76
2022-10-16T22:53:38.714Z,15.68
2022-10-16T22:58:44.036Z,15.39
2022-10-16T23:03:47.609Z,15.63
2022-10-16T23:08:54.900Z,15.59
2022-10-16T23:13:59.921Z,15.37
2022-10-16T23:19:03.411Z,15.44
2022-10-16T23:24:07.516Z,15.19
2022-10-16T23:29:12.407Z,14.76
2022-10-16T23:34:15.890Z,15.05
2022-10-16T23:39:19.338Z,14.99
2022-10-16T23:44:24.801Z,13.90
2022-10-16T23:49:29.385Z,15.10
2022-10-16T23:54:32.722Z,15.03
2022-10-16T23:59:37.561Z,14.96
